sensor_id;sensor_type;location;lat;lon;timestamp;temperature;humidity
38237;DHT22;50101;49.438;11.098;2023-03-14T00:01:13;19.60;54.50
38237;DHT22;50101;49.438;11.098;2023-03-14T00:03:40;19.60;54.50
38237;DHT22;50101;49.438;11.098;2023-03-14T00:06:08;19.50;54.40
38237;DHT22;50101;49.438;11.098;2023-03-14T00:08:35;19.60;54.40
38237;DHT22;50101;49.438;11.098;2023-03-14T00:11:10;19.60;54.40
38237;DHT22;50101;49.438;11.098;2023-03-14T00:13:37;19.60;54.40
38237;DHT22;50101;49.438;11.098;2023-03-14T00:16:09;19.60;54.40
38237;DHT22;50101;49.438;11.098;2023-03-14T00:18:37;19.60;54.40
38237;DHT22;50101;49.438;11.098;2023-03-14T00:21:05;19.50;54.30
38237;DHT22;50101;49.438;11.098;2023-03-14T00:23:34;19.50;54.30
38237;DHT22;50101;49.438;11.098;2023-03-14T00:26:03;19.50;54.30
38237;DHT22;50101;49.438;11.098;2023-03-14T00:28:30;19.60;54.40
38237;DHT22;50101;49.438;11.098;2023-03-14T00:30:57;19.60;54.40
38237;DHT22;50101;49.438;11.098;2023-03-14T00:33:25;19.60;54.40
38237;DHT22;50101;49.438;11.098;2023-03-14T00:35:56;19.60;54.40
38237;DHT22;50101;49.438;11.098;2023-03-14T00:38:23;19.60;54.40
38237;DHT22;50101;49.438;11.098;2023-03-14T00:40:51;19.50;53.80
38237;DHT22;50101;49.438;11.098;2023-03-14T00:43:18;19.50;54.30
38237;DHT22;50101;49.438;11.098;2023-03-14T00:45:51;19.50;54.30
38237;DHT22;50101;49.438;11.098;2023-03-14T00:48:19;19.50;54.40
38237;DHT22;50101;49.438;11.098;2023-03-14T00:50:46;19.50;54.40
38237;DHT22;50101;49.438;11.098;2023-03-14T00:53:13;19.50;54.40
38237;DHT22;50101;49.438;11.098;2023-03-14T00:55:41;19.50;54.40
38237;DHT22;50101;49.438;11.098;2023-03-14T00:58:10;19.50;54.40
38237;DHT22;50101;49.438;11.098;2023-03-14T01:00:38;19.50;54.40
38237;DHT22;50101;49.438;11.098;2023-03-14T01:03:05;19.40;54.30
38237;DHT22;50101;49.438;11.098;2023-03-14T01:05:32;19.50;54.40
38237;DHT22;50101;49.438;11.098;2023-03-14T01:07:59;19.50;54.30
38237;DHT22;50101;49.438;11.098;2023-03-14T01:10:26;19.40;54.20
38237;DHT22;50101;49.438;11.098;2023-03-14T01:12:53;19.40;54.20
38237;DHT22;50101;49.438;11.098;2023-03-14T01:15:20;19.40;54.20
38237;DHT22;50101;49.438;11.098;2023-03-14T01:17:47;19.40;54.20
38237;DHT22;50101;49.438;11.098;2023-03-14T01:20:14;19.40;54.30
38237;DHT22;50101;49.438;11.098;2023-03-14T01:22:42;19.50;54.30
38237;DHT22;50101;49.438;11.098;2023-03-14T01:25:11;19.40;54.20
38237;DHT22;50101;49.438;11.098;2023-03-14T01:27:38;19.40;54.20
38237;DHT22;50101;49.438;11.098;2023-03-14T01:30:06;19.40;54.20
38237;DHT22;50101;49.438;11.098;2023-03-14T01:32:34;19.40;54.20
38237;DHT22;50101;49.438;11.098;2023-03-14T01:35:02;19.40;54.20
38237;DHT22;50101;49.438;11.098;2023-03-14T01:37:28;19.50;54.20
38237;DHT22;50101;49.438;11.098;2023-03-14T01:39:55;19.40;54.10
38237;DHT22;50101;49.438;11.098;2023-03-14T01:42:22;19.40;54.10
38237;DHT22;50101;49.438;11.098;2023-03-14T01:47:18;19.40;54.20
38237;DHT22;50101;49.438;11.098;2023-03-14T01:49:56;19.40;53.60
38237;DHT22;50101;49.438;11.098;2023-03-14T01:52:32;19.40;54.10
38237;DHT22;50101;49.438;11.098;2023-03-14T01:55:13;19.40;54.10
38237;DHT22;50101;49.438;11.098;2023-03-14T01:58:03;19.40;54.10
38237;DHT22;50101;49.438;11.098;2023-03-14T02:00:30;19.40;54.00
38237;DHT22;50101;49.438;11.098;2023-03-14T02:03:05;19.40;54.10
38237;DHT22;50101;49.438;11.098;2023-03-14T02:05:36;19.40;54.00
38237;DHT22;50101;49.438;11.098;2023-03-14T02:08:07;19.40;54.00
38237;DHT22;50101;49.438;11.098;2023-03-14T02:10:38;19.40;53.50
38237;DHT22;50101;49.438;11.098;2023-03-14T02:13:05;19.40;54.00
38237;DHT22;50101;49.438;11.098;2023-03-14T02:15:33;19.40;54.00
38237;DHT22;50101;49.438;11.098;2023-03-14T02:18:02;19.40;54.00
38237;DHT22;50101;49.438;11.098;2023-03-14T02:23:19;19.40;54.00
38237;DHT22;50101;49.438;11.098;2023-03-14T02:28:16;19.40;54.00
38237;DHT22;50101;49.438;11.098;2023-03-14T02:30:43;19.40;54.00
38237;DHT22;50101;49.438;11.098;2023-03-14T02:33:12;19.40;54.00
38237;DHT22;50101;49.438;11.098;2023-03-14T02:35:48;19.40;54.00
38237;DHT22;50101;49.438;11.098;2023-03-14T02:38:24;19.40;54.00
38237;DHT22;50101;49.438;11.098;2023-03-14T02:40:53;19.40;53.40
38237;DHT22;50101;49.438;11.098;2023-03-14T02:43:20;19.40;54.00
38237;DHT22;50101;49.438;11.098;2023-03-14T02:45:48;19.40;54.00
38237;DHT22;50101;49.438;11.098;2023-03-14T02:48:27;19.40;54.00
38237;DHT22;50101;49.438;11.098;2023-03-14T02:50:57;19.40;53.90
38237;DHT22;50101;49.438;11.098;2023-03-14T02:53:30;19.40;53.90
38237;DHT22;50101;49.438;11.098;2023-03-14T02:55:58;19.40;53.90
38237;DHT22;50101;49.438;11.098;2023-03-14T02:58:25;19.40;53.90
38237;DHT22;50101;49.438;11.098;2023-03-14T03:00:52;19.40;53.90
38237;DHT22;50101;49.438;11.098;2023-03-14T03:03:18;19.40;53.90
38237;DHT22;50101;49.438;11.098;2023-03-14T03:05:50;19.40;53.90
38237;DHT22;50101;49.438;11.098;2023-03-14T03:08:18;19.40;53.80
38237;DHT22;50101;49.438;11.098;2023-03-14T03:10:45;19.40;53.90
38237;DHT22;50101;49.438;11.098;2023-03-14T03:13:12;19.40;53.90
38237;DHT22;50101;49.438;11.098;2023-03-14T03:15:38;19.40;53.80
38237;DHT22;50101;49.438;11.098;2023-03-14T03:18:06;19.40;53.80
38237;DHT22;50101;49.438;11.098;2023-03-14T03:20:33;19.40;53.80
38237;DHT22;50101;49.438;11.098;2023-03-14T03:23:00;19.40;53.80
38237;DHT22;50101;49.438;11.098;2023-03-14T03:25:27;19.40;53.80
38237;DHT22;50101;49.438;11.098;2023-03-14T03:27:54;19.40;53.80
38237;DHT22;50101;49.438;11.098;2023-03-14T03:30:20;19.40;53.70
38237;DHT22;50101;49.438;11.098;2023-03-14T03:32:47;19.40;53.70
38237;DHT22;50101;49.438;11.098;2023-03-14T03:35:14;19.40;53.80
38237;DHT22;50101;49.438;11.098;2023-03-14T03:37:41;19.40;53.70
38237;DHT22;50101;49.438;11.098;2023-03-14T03:40:08;19.40;53.70
38237;DHT22;50101;49.438;11.098;2023-03-14T03:42:35;19.40;53.70
38237;DHT22;50101;49.438;11.098;2023-03-14T03:45:03;19.40;53.70
38237;DHT22;50101;49.438;11.098;2023-03-14T03:47:31;19.40;53.70
38237;DHT22;50101;49.438;11.098;2023-03-14T03:49:57;19.40;53.70
38237;DHT22;50101;49.438;11.098;2023-03-14T03:52:24;19.40;53.70
38237;DHT22;50101;49.438;11.098;2023-03-14T03:54:50;19.40;53.70
38237;DHT22;50101;49.438;11.098;2023-03-14T03:57:17;19.40;53.70
38237;DHT22;50101;49.438;11.098;2023-03-14T03:59:44;19.40;53.70
38237;DHT22;50101;49.438;11.098;2023-03-14T04:02:10;19.40;53.70
38237;DHT22;50101;49.438;11.098;2023-03-14T04:04:37;19.40;53.70
38237;DHT22;50101;49.438;11.098;2023-03-14T04:07:05;19.40;53.70
38237;DHT22;50101;49.438;11.098;2023-03-14T04:09:32;19.40;53.70
38237;DHT22;50101;49.438;11.098;2023-03-14T04:11:58;19.40;53.60
38237;DHT22;50101;49.438;11.098;2023-03-14T04:14:25;19.40;53.70
38237;DHT22;50101;49.438;11.098;2023-03-14T04:16:52;19.40;53.60
38237;DHT22;50101;49.438;11.098;2023-03-14T04:19:19;19.40;53.70
38237;DHT22;50101;49.438;11.098;2023-03-14T04:21:46;19.40;53.60
38237;DHT22;50101;49.438;11.098;2023-03-14T04:24:13;19.40;53.60
38237;DHT22;50101;49.438;11.098;2023-03-14T04:26:40;19.40;53.60
38237;DHT22;50101;49.438;11.098;2023-03-14T04:29:07;19.40;54.20
38237;DHT22;50101;49.438;11.098;2023-03-14T04:31:33;19.40;53.60
38237;DHT22;50101;49.438;11.098;2023-03-14T04:34:00;19.40;53.60
38237;DHT22;50101;49.438;11.098;2023-03-14T04:36:27;19.40;53.60
38237;DHT22;50101;49.438;11.098;2023-03-14T04:38:53;19.40;54.30
38237;DHT22;50101;49.438;11.098;2023-03-14T04:41:20;19.40;53.60
38237;DHT22;50101;49.438;11.098;2023-03-14T04:43:47;19.40;53.60
38237;DHT22;50101;49.438;11.098;2023-03-14T04:46:14;19.40;53.50
38237;DHT22;50101;49.438;11.098;2023-03-14T04:48:41;19.40;53.50
38237;DHT22;50101;49.438;11.098;2023-03-14T04:51:07;19.40;53.50
38237;DHT22;50101;49.438;11.098;2023-03-14T04:53:34;19.40;53.50
38237;DHT22;50101;49.438;11.098;2023-03-14T04:56:03;19.40;53.50
38237;DHT22;50101;49.438;11.098;2023-03-14T04:58:30;19.40;53.60
38237;DHT22;50101;49.438;11.098;2023-03-14T05:01:04;19.40;53.60
38237;DHT22;50101;49.438;11.098;2023-03-14T05:03:31;19.40;53.60
38237;DHT22;50101;49.438;11.098;2023-03-14T05:05:57;19.40;53.60
38237;DHT22;50101;49.438;11.098;2023-03-14T05:08:25;19.40;53.50
38237;DHT22;50101;49.438;11.098;2023-03-14T05:10:56;19.40;53.50
38237;DHT22;50101;49.438;11.098;2023-03-14T05:13:23;19.40;53.50
38237;DHT22;50101;49.438;11.098;2023-03-14T05:15:50;19.40;53.50
38237;DHT22;50101;49.438;11.098;2023-03-14T05:18:18;19.40;53.50
38237;DHT22;50101;49.438;11.098;2023-03-14T05:20:45;19.40;53.50
38237;DHT22;50101;49.438;11.098;2023-03-14T05:23:11;19.40;53.60
38237;DHT22;50101;49.438;11.098;2023-03-14T05:25:38;19.40;53.60
38237;DHT22;50101;49.438;11.098;2023-03-14T05:28:05;19.40;53.50
38237;DHT22;50101;49.438;11.098;2023-03-14T05:30:31;19.40;53.50
38237;DHT22;50101;49.438;11.098;2023-03-14T05:33:00;19.40;53.50
38237;DHT22;50101;49.438;11.098;2023-03-14T05:35:26;19.40;53.60
38237;DHT22;50101;49.438;11.098;2023-03-14T05:37:53;19.50;53.90
38237;DHT22;50101;49.438;11.098;2023-03-14T05:40:20;19.50;53.90
38237;DHT22;50101;49.438;11.098;2023-03-14T05:42:47;19.50;53.80
38237;DHT22;50101;49.438;11.098;2023-03-14T05:45:13;19.60;53.90
38237;DHT22;50101;49.438;11.098;2023-03-14T05:47:40;19.50;53.80
38237;DHT22;50101;49.438;11.098;2023-03-14T05:50:07;19.50;53.80
38237;DHT22;50101;49.438;11.098;2023-03-14T05:52:34;19.50;53.80
38237;DHT22;50101;49.438;11.098;2023-03-14T05:55:00;19.50;53.70
38237;DHT22;50101;49.438;11.098;2023-03-14T05:57:27;19.50;53.70
38237;DHT22;50101;49.438;11.098;2023-03-14T05:59:54;19.50;53.60
38237;DHT22;50101;49.438;11.098;2023-03-14T06:02:20;19.50;53.60
38237;DHT22;50101;49.438;11.098;2023-03-14T06:04:47;19.50;53.60
38237;DHT22;50101;49.438;11.098;2023-03-14T06:07:14;19.50;53.60
38237;DHT22;50101;49.438;11.098;2023-03-14T06:09:40;19.60;53.60
38237;DHT22;50101;49.438;11.098;2023-03-14T06:12:07;19.60;53.50
38237;DHT22;50101;49.438;11.098;2023-03-14T06:14:34;19.50;53.40
38237;DHT22;50101;49.438;11.098;2023-03-14T06:17:00;19.60;53.50
38237;DHT22;50101;49.438;11.098;2023-03-14T06:19:27;19.60;53.40
38237;DHT22;50101;49.438;11.098;2023-03-14T06:21:54;19.60;53.30
38237;DHT22;50101;49.438;11.098;2023-03-14T06:24:20;19.60;53.30
38237;DHT22;50101;49.438;11.098;2023-03-14T06:26:47;19.60;53.30
38237;DHT22;50101;49.438;11.098;2023-03-14T06:29:14;19.60;53.20
38237;DHT22;50101;49.438;11.098;2023-03-14T06:31:40;19.60;53.40
38237;DHT22;50101;49.438;11.098;2023-03-14T06:34:07;19.60;53.50
38237;DHT22;50101;49.438;11.098;2023-03-14T06:36:34;19.60;53.70
38237;DHT22;50101;49.438;11.098;2023-03-14T06:39:00;19.60;53.70
38237;DHT22;50101;49.438;11.098;2023-03-14T06:41:27;19.60;53.80
38237;DHT22;50101;49.438;11.098;2023-03-14T06:43:54;19.60;53.70
38237;DHT22;50101;49.438;11.098;2023-03-14T06:46:22;19.60;53.80
38237;DHT22;50101;49.438;11.098;2023-03-14T06:48:49;19.60;53.80
38237;DHT22;50101;49.438;11.098;2023-03-14T06:51:16;19.60;53.80
38237;DHT22;50101;49.438;11.098;2023-03-14T06:53:42;19.60;53.70
38237;DHT22;50101;49.438;11.098;2023-03-14T06:56:09;19.60;53.70
38237;DHT22;50101;49.438;11.098;2023-03-14T06:58:36;19.70;53.80
38237;DHT22;50101;49.438;11.098;2023-03-14T07:01:02;19.60;53.20
38237;DHT22;50101;49.438;11.098;2023-03-14T07:03:29;19.70;53.90
38237;DHT22;50101;49.438;11.098;2023-03-14T07:05:56;19.70;53.80
38237;DHT22;50101;49.438;11.098;2023-03-14T07:08:23;19.70;53.70
38237;DHT22;50101;49.438;11.098;2023-03-14T07:10:50;19.70;53.70
38237;DHT22;50101;49.438;11.098;2023-03-14T07:13:16;19.70;53.60
38237;DHT22;50101;49.438;11.098;2023-03-14T07:15:43;19.70;53.60
38237;DHT22;50101;49.438;11.098;2023-03-14T07:18:10;19.70;53.80
38237;DHT22;50101;49.438;11.098;2023-03-14T07:20:37;19.80;53.80
38237;DHT22;50101;49.438;11.098;2023-03-14T07:23:04;19.80;53.80
38237;DHT22;50101;49.438;11.098;2023-03-14T07:25:30;19.80;53.90
38237;DHT22;50101;49.438;11.098;2023-03-14T07:27:57;19.90;53.90
38237;DHT22;50101;49.438;11.098;2023-03-14T07:30:24;19.90;53.70
38237;DHT22;50101;49.438;11.098;2023-03-14T07:32:50;19.90;53.60
38237;DHT22;50101;49.438;11.098;2023-03-14T07:35:18;19.90;53.70
38237;DHT22;50101;49.438;11.098;2023-03-14T07:37:45;19.90;53.50
38237;DHT22;50101;49.438;11.098;2023-03-14T07:40:12;20.00;53.60
38237;DHT22;50101;49.438;11.098;2023-03-14T07:42:42;20.00;53.60
38237;DHT22;50101;49.438;11.098;2023-03-14T07:45:10;20.00;53.60
38237;DHT22;50101;49.438;11.098;2023-03-14T07:47:38;20.00;53.60
38237;DHT22;50101;49.438;11.098;2023-03-14T07:50:05;20.10;53.70
38237;DHT22;50101;49.438;11.098;2023-03-14T07:52:35;20.10;53.70
38237;DHT22;50101;49.438;11.098;2023-03-14T07:55:02;20.10;53.70
38237;DHT22;50101;49.438;11.098;2023-03-14T07:57:29;20.10;53.70
38237;DHT22;50101;49.438;11.098;2023-03-14T07:59:55;20.10;53.70
38237;DHT22;50101;49.438;11.098;2023-03-14T08:02:22;20.10;53.70
38237;DHT22;50101;49.438;11.098;2023-03-14T08:04:50;20.20;53.80
38237;DHT22;50101;49.438;11.098;2023-03-14T08:07:17;20.20;53.80
38237;DHT22;50101;49.438;11.098;2023-03-14T08:09:44;20.20;54.00
38237;DHT22;50101;49.438;11.098;2023-03-14T08:12:10;20.20;54.20
38237;DHT22;50101;49.438;11.098;2023-03-14T08:14:37;20.20;54.20
38237;DHT22;50101;49.438;11.098;2023-03-14T08:17:04;20.20;54.30
38237;DHT22;50101;49.438;11.098;2023-03-14T08:19:31;20.20;53.70
38237;DHT22;50101;49.438;11.098;2023-03-14T08:21:58;20.20;54.10
38237;DHT22;50101;49.438;11.098;2023-03-14T08:24:24;20.20;53.90
38237;DHT22;50101;49.438;11.098;2023-03-14T08:26:51;20.30;54.10
38237;DHT22;50101;49.438;11.098;2023-03-14T08:29:18;20.40;53.70
38237;DHT22;50101;49.438;11.098;2023-03-14T08:31:44;20.30;54.20
38237;DHT22;50101;49.438;11.098;2023-03-14T08:34:11;20.30;54.20
38237;DHT22;50101;49.438;11.098;2023-03-14T08:36:38;20.40;54.30
38237;DHT22;50101;49.438;11.098;2023-03-14T08:39:05;20.30;54.10
38237;DHT22;50101;49.438;11.098;2023-03-14T08:41:34;20.30;54.40
38237;DHT22;50101;49.438;11.098;2023-03-14T08:44:10;20.30;54.30
38237;DHT22;50101;49.438;11.098;2023-03-14T08:46:38;20.30;54.40
38237;DHT22;50101;49.438;11.098;2023-03-14T08:49:05;20.40;54.60
38237;DHT22;50101;49.438;11.098;2023-03-14T08:51:31;20.40;54.80
38237;DHT22;50101;49.438;11.098;2023-03-14T08:53:58;20.40;54.70
38237;DHT22;50101;49.438;11.098;2023-03-14T08:56:25;20.40;54.70
38237;DHT22;50101;49.438;11.098;2023-03-14T08:58:51;20.40;54.80
38237;DHT22;50101;49.438;11.098;2023-03-14T09:01:18;20.40;54.90
38237;DHT22;50101;49.438;11.098;2023-03-14T09:03:45;20.40;54.70
38237;DHT22;50101;49.438;11.098;2023-03-14T09:06:14;20.40;55.00
38237;DHT22;50101;49.438;11.098;2023-03-14T09:08:44;20.40;55.00
38237;DHT22;50101;49.438;11.098;2023-03-14T09:11:12;20.40;54.80
38237;DHT22;50101;49.438;11.098;2023-03-14T09:13:39;20.40;55.10
38237;DHT22;50101;49.438;11.098;2023-03-14T09:16:06;20.50;54.90
38237;DHT22;50101;49.438;11.098;2023-03-14T09:18:33;20.50;54.80
38237;DHT22;50101;49.438;11.098;2023-03-14T09:21:00;20.50;54.60
38237;DHT22;50101;49.438;11.098;2023-03-14T09:23:27;20.50;54.80
38237;DHT22;50101;49.438;11.098;2023-03-14T09:25:57;20.50;54.70
38237;DHT22;50101;49.438;11.098;2023-03-14T09:28:25;20.50;54.80
38237;DHT22;50101;49.438;11.098;2023-03-14T09:30:52;20.50;54.60
38237;DHT22;50101;49.438;11.098;2023-03-14T09:33:18;20.50;54.60
38237;DHT22;50101;49.438;11.098;2023-03-14T09:35:45;20.50;54.70
38237;DHT22;50101;49.438;11.098;2023-03-14T09:38:12;20.50;54.70
38237;DHT22;50101;49.438;11.098;2023-03-14T09:40:40;20.50;54.70
38237;DHT22;50101;49.438;11.098;2023-03-14T09:43:11;20.60;54.80
38237;DHT22;50101;49.438;11.098;2023-03-14T09:45:40;20.50;54.70
38237;DHT22;50101;49.438;11.098;2023-03-14T09:48:20;20.60;54.80
38237;DHT22;50101;49.438;11.098;2023-03-14T09:50:53;20.60;54.70
38237;DHT22;50101;49.438;11.098;2023-03-14T09:53:27;20.60;54.70
38237;DHT22;50101;49.438;11.098;2023-03-14T09:55:58;20.60;54.70
38237;DHT22;50101;49.438;11.098;2023-03-14T09:58:25;20.60;54.60
38237;DHT22;50101;49.438;11.098;2023-03-14T10:00:54;20.60;54.20
38237;DHT22;50101;49.438;11.098;2023-03-14T10:03:33;20.60;54.70
38237;DHT22;50101;49.438;11.098;2023-03-14T10:06:00;20.60;54.70
38237;DHT22;50101;49.438;11.098;2023-03-14T10:08:27;20.50;54.70
38237;DHT22;50101;49.438;11.098;2023-03-14T10:10:54;20.60;54.70
38237;DHT22;50101;49.438;11.098;2023-03-14T10:13:26;20.50;54.70
38237;DHT22;50101;49.438;11.098;2023-03-14T10:15:58;20.50;54.90
38237;DHT22;50101;49.438;11.098;2023-03-14T10:18:26;20.50;54.90
38237;DHT22;50101;49.438;11.098;2023-03-14T10:21:27;20.60;54.40
38237;DHT22;50101;49.438;11.098;2023-03-14T10:23:53;20.50;54.90
38237;DHT22;50101;49.438;11.098;2023-03-14T10:26:29;20.50;54.90
38237;DHT22;50101;49.438;11.098;2023-03-14T10:29:11;20.50;54.80
38237;DHT22;50101;49.438;11.098;2023-03-14T10:31:51;20.50;54.30
38237;DHT22;50101;49.438;11.098;2023-03-14T10:34:33;20.50;54.80
38237;DHT22;50101;49.438;11.098;2023-03-14T10:37:07;20.50;55.10
38237;DHT22;50101;49.438;11.098;2023-03-14T10:39:42;20.60;55.00
38237;DHT22;50101;49.438;11.098;2023-03-14T10:42:27;20.60;54.90
38237;DHT22;50101;49.438;11.098;2023-03-14T10:44:58;20.60;55.40
38237;DHT22;50101;49.438;11.098;2023-03-14T10:47:27;20.50;55.30
38237;DHT22;50101;49.438;11.098;2023-03-14T10:49:57;20.50;54.90
38237;DHT22;50101;49.438;11.098;2023-03-14T10:52:48;20.50;55.50
38237;DHT22;50101;49.438;11.098;2023-03-14T10:55:41;20.40;55.70
38237;DHT22;50101;49.438;11.098;2023-03-14T10:58:27;20.40;55.70
38237;DHT22;50101;49.438;11.098;2023-03-14T11:01:06;20.40;55.70
38237;DHT22;50101;49.438;11.098;2023-03-14T11:03:38;20.40;55.70
38237;DHT22;50101;49.438;11.098;2023-03-14T11:06:22;20.40;55.70
38237;DHT22;50101;49.438;11.098;2023-03-14T11:08:57;20.30;55.70
38237;DHT22;50101;49.438;11.098;2023-03-14T11:11:30;20.30;55.60
38237;DHT22;50101;49.438;11.098;2023-03-14T11:14:15;20.30;55.60
38237;DHT22;50101;49.438;11.098;2023-03-14T11:17:20;20.30;55.60
38237;DHT22;50101;49.438;11.098;2023-03-14T11:20:03;20.30;55.50
38237;DHT22;50101;49.438;11.098;2023-03-14T11:25:09;20.20;55.60
38237;DHT22;50101;49.438;11.098;2023-03-14T11:27:45;20.20;55.50
38237;DHT22;50101;49.438;11.098;2023-03-14T11:30:19;20.20;55.40
38237;DHT22;50101;49.438;11.098;2023-03-14T11:32:59;20.20;55.50
38237;DHT22;50101;49.438;11.098;2023-03-14T11:35:48;20.20;55.30
38237;DHT22;50101;49.438;11.098;2023-03-14T11:38:30;20.30;55.20
38237;DHT22;50101;49.438;11.098;2023-03-14T11:40:59;20.30;54.50
38237;DHT22;50101;49.438;11.098;2023-03-14T11:43:33;20.40;55.20
38237;DHT22;50101;49.438;11.098;2023-03-14T11:46:05;20.40;55.40
38237;DHT22;50101;49.438;11.098;2023-03-14T11:51:08;20.40;55.00
38237;DHT22;50101;49.438;11.098;2023-03-14T11:53:49;20.40;55.50
38237;DHT22;50101;49.438;11.098;2023-03-14T11:56:37;20.40;55.70
38237;DHT22;50101;49.438;11.098;2023-03-14T11:59:33;20.30;55.60
38237;DHT22;50101;49.438;11.098;2023-03-14T12:05:08;20.30;55.60
38237;DHT22;50101;49.438;11.098;2023-03-14T12:10:26;20.40;55.60
38237;DHT22;50101;49.438;11.098;2023-03-14T12:12:53;20.40;55.50
38237;DHT22;50101;49.438;11.098;2023-03-14T12:15:21;20.40;55.40
38237;DHT22;50101;49.438;11.098;2023-03-14T12:17:54;20.40;55.20
38237;DHT22;50101;49.438;11.098;2023-03-14T12:20:23;20.40;54.30
38237;DHT22;50101;49.438;11.098;2023-03-14T12:25:26;20.50;54.80
38237;DHT22;50101;49.438;11.098;2023-03-14T12:30:43;20.50;54.70
38237;DHT22;50101;49.438;11.098;2023-03-14T12:35:41;20.50;54.50
38237;DHT22;50101;49.438;11.098;2023-03-14T12:38:13;20.50;54.50
38237;DHT22;50101;49.438;11.098;2023-03-14T12:41:06;20.50;54.40
38237;DHT22;50101;49.438;11.098;2023-03-14T12:43:38;20.40;54.30
38237;DHT22;50101;49.438;11.098;2023-03-14T12:48:45;20.50;54.20
38237;DHT22;50101;49.438;11.098;2023-03-14T12:51:15;20.50;54.10
38237;DHT22;50101;49.438;11.098;2023-03-14T12:53:57;20.40;53.90
38237;DHT22;50101;49.438;11.098;2023-03-14T13:01:54;20.40;53.40
38237;DHT22;50101;49.438;11.098;2023-03-14T13:04:49;20.40;53.90
38237;DHT22;50101;49.438;11.098;2023-03-14T13:10:47;20.40;53.90
38237;DHT22;50101;49.438;11.098;2023-03-14T13:13:21;20.40;53.90
38237;DHT22;50101;49.438;11.098;2023-03-14T13:15:49;20.40;53.90
38237;DHT22;50101;49.438;11.098;2023-03-14T13:18:40;20.40;53.90
38237;DHT22;50101;49.438;11.098;2023-03-14T13:23:39;20.30;53.80
38237;DHT22;50101;49.438;11.098;2023-03-14T13:26:13;20.40;53.90
38237;DHT22;50101;49.438;11.098;2023-03-14T13:28:41;20.40;53.90
38237;DHT22;50101;49.438;11.098;2023-03-14T13:31:23;20.30;53.80
38237;DHT22;50101;49.438;11.098;2023-03-14T13:34:00;20.30;53.80
38237;DHT22;50101;49.438;11.098;2023-03-14T13:36:27;20.40;53.90
38237;DHT22;50101;49.438;11.098;2023-03-14T13:38:58;20.40;53.90
38237;DHT22;50101;49.438;11.098;2023-03-14T13:41:26;20.30;53.90
38237;DHT22;50101;49.438;11.098;2023-03-14T13:44:03;20.30;53.80
38237;DHT22;50101;49.438;11.098;2023-03-14T13:46:34;20.30;53.80
38237;DHT22;50101;49.438;11.098;2023-03-14T13:49:09;20.30;53.80
38237;DHT22;50101;49.438;11.098;2023-03-14T13:51:38;20.30;53.90
38237;DHT22;50101;49.438;11.098;2023-03-14T13:54:17;20.30;53.80
38237;DHT22;50101;49.438;11.098;2023-03-14T13:56:44;20.20;53.80
38237;DHT22;50101;49.438;11.098;2023-03-14T13:59:31;20.30;53.40
38237;DHT22;50101;49.438;11.098;2023-03-14T14:02:04;20.30;53.90
38237;DHT22;50101;49.438;11.098;2023-03-14T14:04:36;20.20;53.80
38237;DHT22;50101;49.438;11.098;2023-03-14T14:07:09;20.30;53.90
38237;DHT22;50101;49.438;11.098;2023-03-14T14:09:42;20.20;53.80
38237;DHT22;50101;49.438;11.098;2023-03-14T14:12:31;20.20;53.80
38237;DHT22;50101;49.438;11.098;2023-03-14T14:15:06;20.20;53.90
38237;DHT22;50101;49.438;11.098;2023-03-14T14:17:50;20.20;53.80
38237;DHT22;50101;49.438;11.098;2023-03-14T14:20:30;20.20;53.90
38237;DHT22;50101;49.438;11.098;2023-03-14T14:23:04;20.20;53.90
38237;DHT22;50101;49.438;11.098;2023-03-14T14:25:31;20.20;53.90
38237;DHT22;50101;49.438;11.098;2023-03-14T14:27:58;20.20;53.80
38237;DHT22;50101;49.438;11.098;2023-03-14T14:30:30;20.10;53.80
38237;DHT22;50101;49.438;11.098;2023-03-14T14:33:12;20.10;53.80
38237;DHT22;50101;49.438;11.098;2023-03-14T14:35:50;20.20;53.90
38237;DHT22;50101;49.438;11.098;2023-03-14T14:38:18;20.10;53.70
38237;DHT22;50101;49.438;11.098;2023-03-14T14:40:49;20.10;53.70
38237;DHT22;50101;49.438;11.098;2023-03-14T14:43:22;20.10;53.80
38237;DHT22;50101;49.438;11.098;2023-03-14T14:45:52;20.10;53.80
38237;DHT22;50101;49.438;11.098;2023-03-14T14:48:24;20.10;53.70
38237;DHT22;50101;49.438;11.098;2023-03-14T14:51:00;20.10;53.70
38237;DHT22;50101;49.438;11.098;2023-03-14T14:53:38;20.10;53.70
38237;DHT22;50101;49.438;11.098;2023-03-14T14:56:19;20.10;53.70
38237;DHT22;50101;49.438;11.098;2023-03-14T14:58:49;20.00;53.60
38237;DHT22;50101;49.438;11.098;2023-03-14T15:01:17;20.00;53.60
38237;DHT22;50101;49.438;11.098;2023-03-14T15:03:46;20.00;53.60
38237;DHT22;50101;49.438;11.098;2023-03-14T15:06:15;20.40;53.90
38237;DHT22;50101;49.438;11.098;2023-03-14T15:08:47;20.10;53.70
38237;DHT22;50101;49.438;11.098;2023-03-14T15:11:17;20.00;53.60
38237;DHT22;50101;49.438;11.098;2023-03-14T15:13:44;20.00;53.60
38237;DHT22;50101;49.438;11.098;2023-03-14T15:16:12;20.00;53.60
38237;DHT22;50101;49.438;11.098;2023-03-14T15:18:40;20.00;53.60
38237;DHT22;50101;49.438;11.098;2023-03-14T15:21:10;20.00;53.10
38237;DHT22;50101;49.438;11.098;2023-03-14T15:23:37;20.00;53.50
38237;DHT22;50101;49.438;11.098;2023-03-14T15:26:11;20.00;53.40
38237;DHT22;50101;49.438;11.098;2023-03-14T15:28:39;20.00;53.50
38237;DHT22;50101;49.438;11.098;2023-03-14T15:31:09;20.00;52.90
38237;DHT22;50101;49.438;11.098;2023-03-14T15:33:37;20.00;53.50
38237;DHT22;50101;49.438;11.098;2023-03-14T15:36:06;19.90;53.30
38237;DHT22;50101;49.438;11.098;2023-03-14T15:38:33;19.90;53.30
38237;DHT22;50101;49.438;11.098;2023-03-14T15:40:59;19.90;53.40
38237;DHT22;50101;49.438;11.098;2023-03-14T15:43:26;19.90;53.20
38237;DHT22;50101;49.438;11.098;2023-03-14T15:45:53;19.90;53.30
38237;DHT22;50101;49.438;11.098;2023-03-14T15:48:20;19.90;53.20
38237;DHT22;50101;49.438;11.098;2023-03-14T15:50:47;19.90;53.10
38237;DHT22;50101;49.438;11.098;2023-03-14T15:53:15;19.90;52.50
38237;DHT22;50101;49.438;11.098;2023-03-14T15:55:41;19.90;53.00
38237;DHT22;50101;49.438;11.098;2023-03-14T15:58:16;19.90;53.00
38237;DHT22;50101;49.438;11.098;2023-03-14T16:00:47;19.90;52.90
38237;DHT22;50101;49.438;11.098;2023-03-14T16:03:14;20.00;53.00
38237;DHT22;50101;49.438;11.098;2023-03-14T16:05:40;20.00;53.00
38237;DHT22;50101;49.438;11.098;2023-03-14T16:08:07;20.00;52.90
38237;DHT22;50101;49.438;11.098;2023-03-14T16:10:34;20.00;52.90
38237;DHT22;50101;49.438;11.098;2023-03-14T16:13:01;20.00;52.80